sensor_id;sensor_type;location;lat;lon;timestamp;P1;durP1;ratioP1;P2;durP2;ratioP2
4821;SDS011;2425;47.794;13.068;2024-02-21T00:00:10;0.60;;;0.60;;
4821;SDS011;2425;47.794;13.068;2024-02-21T00:02:37;0.90;;;0.50;;
4821;SDS011;2425;47.794;13.068;2024-02-21T00:05:06;0.50;;;0.50;;
4821;SDS011;2425;47.794;13.068;2024-02-21T00:07:33;0.80;;;0.80;;
4821;SDS011;2425;47.794;13.068;2024-02-21T00:09:59;0.60;;;0.60;;
4821;SDS011;2425;47.794;13.068;2024-02-21T00:12:27;0.60;;;0.60;;
4821;SDS011;2425;47.794;13.068;2024-02-21T00:14:53;0.53;;;0.53;;
4821;SDS011;2425;47.794;13.068;2024-02-21T00:17:20;0.50;;;0.50;;
4821;SDS011;2425;47.794;13.068;2024-02-21T00:19:47;0.50;;;0.50;;
4821;SDS011;2425;47.794;13.068;2024-02-21T00:22:15;0.93;;;0.70;;
4821;SDS011;2425;47.794;13.068;2024-02-21T00:24:42;0.63;;;0.63;;
4821;SDS011;2425;47.794;13.068;2024-02-21T00:27:08;0.50;;;0.50;;
4821;SDS011;2425;47.794;13.068;2024-02-21T00:29:35;0.43;;;0.43;;
4821;SDS011;2425;47.794;13.068;2024-02-21T00:32:02;0.70;;;0.70;;
4821;SDS011;2425;47.794;13.068;2024-02-21T00:34:29;0.80;;;0.80;;
4821;SDS011;2425;47.794;13.068;2024-02-21T00:36:55;0.50;;;0.50;;
4821;SDS011;2425;47.794;13.068;2024-02-21T00:39:23;0.77;;;0.77;;
4821;SDS011;2425;47.794;13.068;2024-02-21T00:41:50;0.53;;;0.53;;
4821;SDS011;2425;47.794;13.068;2024-02-21T00:44:18;0.97;;;0.70;;
4821;SDS011;2425;47.794;13.068;2024-02-21T00:46:45;0.70;;;0.70;;
4821;SDS011;2425;47.794;13.068;2024-02-21T00:49:12;0.60;;;0.60;;
4821;SDS011;2425;47.794;13.068;2024-02-21T00:51:38;0.50;;;0.50;;
4821;SDS011;2425;47.794;13.068;2024-02-21T00:54:05;2.40;;;0.60;;
4821;SDS011;2425;47.794;13.068;2024-02-21T00:56:33;0.70;;;0.70;;
4821;SDS011;2425;47.794;13.068;2024-02-21T00:59:00;0.60;;;0.60;;
4821;SDS011;2425;47.794;13.068;2024-02-21T01:01:27;0.50;;;0.50;;
4821;SDS011;2425;47.794;13.068;2024-02-21T01:03:54;0.47;;;0.47;;
4821;SDS011;2425;47.794;13.068;2024-02-21T01:06:21;0.73;;;0.73;;
4821;SDS011;2425;47.794;13.068;2024-02-21T01:08:48;0.60;;;0.60;;
4821;SDS011;2425;47.794;13.068;2024-02-21T01:11:15;0.90;;;0.90;;
4821;SDS011;2425;47.794;13.068;2024-02-21T01:13:44;0.50;;;0.50;;
4821;SDS011;2425;47.794;13.068;2024-02-21T01:16:10;0.60;;;0.60;;
4821;SDS011;2425;47.794;13.068;2024-02-21T01:18:37;0.53;;;0.53;;
4821;SDS011;2425;47.794;13.068;2024-02-21T01:21:06;0.50;;;0.50;;
4821;SDS011;2425;47.794;13.068;2024-02-21T01:23:33;5.93;;;0.57;;
4821;SDS011;2425;47.794;13.068;2024-02-21T01:26:00;0.50;;;0.50;;
4821;SDS011;2425;47.794;13.068;2024-02-21T01:28:27;0.70;;;0.70;;
4821;SDS011;2425;47.794;13.068;2024-02-21T01:30:55;1.63;;;0.50;;
4821;SDS011;2425;47.794;13.068;2024-02-21T01:33:21;0.40;;;0.40;;
4821;SDS011;2425;47.794;13.068;2024-02-21T01:35:48;0.57;;;0.57;;
4821;SDS011;2425;47.794;13.068;2024-02-21T01:38:15;0.50;;;0.50;;
4821;SDS011;2425;47.794;13.068;2024-02-21T01:40:42;0.47;;;0.47;;
4821;SDS011;2425;47.794;13.068;2024-02-21T01:43:15;0.57;;;0.57;;
4821;SDS011;2425;47.794;13.068;2024-02-21T01:45:42;0.50;;;0.50;;
4821;SDS011;2425;47.794;13.068;2024-02-21T01:48:11;0.50;;;0.50;;
4821;SDS011;2425;47.794;13.068;2024-02-21T01:50:38;0.60;;;0.60;;
4821;SDS011;2425;47.794;13.068;2024-02-21T01:53:05;0.47;;;0.47;;
4821;SDS011;2425;47.794;13.068;2024-02-21T01:55:32;0.50;;;0.50;;
4821;SDS011;2425;47.794;13.068;2024-02-21T01:57:59;0.50;;;0.50;;
4821;SDS011;2425;47.794;13.068;2024-02-21T02:00:26;0.70;;;0.50;;
4821;SDS011;2425;47.794;13.068;2024-02-21T02:02:53;0.50;;;0.50;;
4821;SDS011;2425;47.794;13.068;2024-02-21T02:05:22;0.80;;;0.50;;
4821;SDS011;2425;47.794;13.068;2024-02-21T02:07:48;0.60;;;0.60;;
4821;SDS011;2425;47.794;13.068;2024-02-21T02:10:15;0.60;;;0.60;;
4821;SDS011;2425;47.794;13.068;2024-02-21T02:12:42;0.40;;;0.40;;
4821;SDS011;2425;47.794;13.068;2024-02-21T02:15:09;0.60;;;0.60;;
4821;SDS011;2425;47.794;13.068;2024-02-21T02:17:35;0.50;;;0.50;;
4821;SDS011;2425;47.794;13.068;2024-02-21T02:20:02;0.60;;;0.60;;
4821;SDS011;2425;47.794;13.068;2024-02-21T02:22:31;0.57;;;0.50;;
4821;SDS011;2425;47.794;13.068;2024-02-21T02:25:00;0.40;;;0.40;;
4821;SDS011;2425;47.794;13.068;2024-02-21T02:27:27;0.50;;;0.50;;
4821;SDS011;2425;47.794;13.068;2024-02-21T02:29:53;0.50;;;0.50;;
4821;SDS011;2425;47.794;13.068;2024-02-21T02:32:20;0.50;;;0.50;;
4821;SDS011;2425;47.794;13.068;2024-02-21T02:34:47;0.40;;;0.40;;
4821;SDS011;2425;47.794;13.068;2024-02-21T02:37:13;0.50;;;0.50;;
4821;SDS011;2425;47.794;13.068;2024-02-21T02:39:40;0.30;;;0.30;;
4821;SDS011;2425;47.794;13.068;2024-02-21T02:42:08;0.63;;;0.63;;
4821;SDS011;2425;47.794;13.068;2024-02-21T02:44:35;0.53;;;0.53;;
4821;SDS011;2425;47.794;13.068;2024-02-21T02:47:02;0.40;;;0.40;;
4821;SDS011;2425;47.794;13.068;2024-02-21T02:49:29;0.60;;;0.60;;
4821;SDS011;2425;47.794;13.068;2024-02-21T02:51:56;0.70;;;0.50;;
4821;SDS011;2425;47.794;13.068;2024-02-21T02:54:22;0.97;;;0.50;;
4821;SDS011;2425;47.794;13.068;2024-02-21T02:56:49;0.43;;;0.43;;
4821;SDS011;2425;47.794;13.068;2024-02-21T02:59:18;0.50;;;0.50;;
4821;SDS011;2425;47.794;13.068;2024-02-21T03:01:44;0.53;;;0.53;;
4821;SDS011;2425;47.794;13.068;2024-02-21T03:04:11;0.40;;;0.40;;
4821;SDS011;2425;47.794;13.068;2024-02-21T03:06:38;0.50;;;0.50;;
4821;SDS011;2425;47.794;13.068;2024-02-21T03:09:04;0.47;;;0.40;;
4821;SDS011;2425;47.794;13.068;2024-02-21T03:11:33;0.50;;;0.50;;
4821;SDS011;2425;47.794;13.068;2024-02-21T03:14:00;0.50;;;0.50;;
4821;SDS011;2425;47.794;13.068;2024-02-21T03:16:28;0.50;;;0.50;;
4821;SDS011;2425;47.794;13.068;2024-02-21T03:18:55;0.57;;;0.57;;
4821;SDS011;2425;47.794;13.068;2024-02-21T03:21:21;0.67;;;0.67;;
4821;SDS011;2425;47.794;13.068;2024-02-21T03:23:48;0.37;;;0.37;;
4821;SDS011;2425;47.794;13.068;2024-02-21T03:26:15;0.40;;;0.40;;
4821;SDS011;2425;47.794;13.068;2024-02-21T03:28:42;0.40;;;0.40;;
4821;SDS011;2425;47.794;13.068;2024-02-21T03:31:10;0.43;;;0.43;;
4821;SDS011;2425;47.794;13.068;2024-02-21T03:33:39;0.30;;;0.30;;
4821;SDS011;2425;47.794;13.068;2024-02-21T03:36:06;0.50;;;0.50;;
4821;SDS011;2425;47.794;13.068;2024-02-21T03:38:33;0.50;;;0.50;;
4821;SDS011;2425;47.794;13.068;2024-02-21T03:40:59;0.40;;;0.40;;
4821;SDS011;2425;47.794;13.068;2024-02-21T03:43:26;0.47;;;0.47;;
4821;SDS011;2425;47.794;13.068;2024-02-21T03:45:53;0.50;;;0.50;;
4821;SDS011;2425;47.794;13.068;2024-02-21T03:48:20;0.50;;;0.50;;
4821;SDS011;2425;47.794;13.068;2024-02-21T03:50:48;0.40;;;0.40;;
4821;SDS011;2425;47.794;13.068;2024-02-21T03:53:15;0.40;;;0.40;;
4821;SDS011;2425;47.794;13.068;2024-02-21T03:55:41;0.40;;;0.40;;
4821;SDS011;2425;47.794;13.068;2024-02-21T03:58:08;0.40;;;0.40;;
4821;SDS011;2425;47.794;13.068;2024-02-21T04:00:35;0.30;;;0.30;;
4821;SDS011;2425;47.794;13.068;2024-02-21T04:03:01;0.43;;;0.43;;
4821;SDS011;2425;47.794;13.068;2024-02-21T04:05:28;0.40;;;0.40;;
4821;SDS011;2425;47.794;13.068;2024-02-21T04:07:56;0.40;;;0.37;;
4821;SDS011;2425;47.794;13.068;2024-02-21T04:10:23;0.30;;;0.30;;
4821;SDS011;2425;47.794;13.068;2024-02-21T04:12:50;0.40;;;0.40;;
4821;SDS011;2425;47.794;13.068;2024-02-21T04:15:17;0.40;;;0.40;;
4821;SDS011;2425;47.794;13.068;2024-02-21T04:17:44;0.40;;;0.40;;
4821;SDS011;2425;47.794;13.068;2024-02-21T04:20:13;0.40;;;0.40;;
4821;SDS011;2425;47.794;13.068;2024-02-21T04:22:40;0.40;;;0.40;;
4821;SDS011;2425;47.794;13.068;2024-02-21T04:25:10;0.40;;;0.40;;
4821;SDS011;2425;47.794;13.068;2024-02-21T04:27:37;0.30;;;0.30;;
4821;SDS011;2425;47.794;13.068;2024-02-21T04:30:05;0.43;;;0.43;;
4821;SDS011;2425;47.794;13.068;2024-02-21T04:32:32;0.47;;;0.47;;
4821;SDS011;2425;47.794;13.068;2024-02-21T04:34:59;0.53;;;0.53;;
4821;SDS011;2425;47.794;13.068;2024-02-21T04:37:26;0.50;;;0.50;;
4821;SDS011;2425;47.794;13.068;2024-02-21T04:39:52;0.30;;;0.30;;
4821;SDS011;2425;47.794;13.068;2024-02-21T04:42:20;0.40;;;0.40;;
4821;SDS011;2425;47.794;13.068;2024-02-21T04:44:47;0.30;;;0.30;;
4821;SDS011;2425;47.794;13.068;2024-02-21T04:47:14;0.40;;;0.40;;
4821;SDS011;2425;47.794;13.068;2024-02-21T04:49:41;0.43;;;0.43;;
4821;SDS011;2425;47.794;13.068;2024-02-21T04:52:07;0.40;;;0.40;;
4821;SDS011;2425;47.794;13.068;2024-02-21T04:54:34;0.40;;;0.40;;
4821;SDS011;2425;47.794;13.068;2024-02-21T04:57:01;0.70;;;0.70;;
4821;SDS011;2425;47.794;13.068;2024-02-21T04:59:29;0.40;;;0.40;;
4821;SDS011;2425;47.794;13.068;2024-02-21T05:01:56;0.50;;;0.50;;
4821;SDS011;2425;47.794;13.068;2024-02-21T05:04:23;0.30;;;0.30;;
4821;SDS011;2425;47.794;13.068;2024-02-21T05:06:50;0.40;;;0.40;;
4821;SDS011;2425;47.794;13.068;2024-02-21T05:09:17;0.30;;;0.30;;
4821;SDS011;2425;47.794;13.068;2024-02-21T05:11:43;0.40;;;0.40;;
4821;SDS011;2425;47.794;13.068;2024-02-21T05:14:10;0.30;;;0.30;;
4821;SDS011;2425;47.794;13.068;2024-02-21T05:16:39;0.43;;;0.43;;
4821;SDS011;2425;47.794;13.068;2024-02-21T05:19:06;0.40;;;0.40;;
4821;SDS011;2425;47.794;13.068;2024-02-21T05:21:33;0.40;;;0.40;;
4821;SDS011;2425;47.794;13.068;2024-02-21T05:23:59;0.30;;;0.30;;
4821;SDS011;2425;47.794;13.068;2024-02-21T05:26:26;0.30;;;0.30;;
4821;SDS011;2425;47.794;13.068;2024-02-21T05:28:53;0.40;;;0.40;;
4821;SDS011;2425;47.794;13.068;2024-02-21T05:31:20;0.40;;;0.40;;
4821;SDS011;2425;47.794;13.068;2024-02-21T05:33:48;0.30;;;0.30;;
4821;SDS011;2425;47.794;13.068;2024-02-21T05:36:15;0.30;;;0.30;;
4821;SDS011;2425;47.794;13.068;2024-02-21T05:38:42;0.40;;;0.40;;
4821;SDS011;2425;47.794;13.068;2024-02-21T05:41:08;0.40;;;0.40;;
4821;SDS011;2425;47.794;13.068;2024-02-21T05:43:35;0.50;;;0.50;;
4821;SDS011;2425;47.794;13.068;2024-02-21T05:46:02;0.43;;;0.43;;
4821;SDS011;2425;47.794;13.068;2024-02-21T05:48:29;0.30;;;0.30;;
4821;SDS011;2425;47.794;13.068;2024-02-21T05:50:57;0.40;;;0.40;;
4821;SDS011;2425;47.794;13.068;2024-02-21T05:53:24;0.40;;;0.40;;
4821;SDS011;2425;47.794;13.068;2024-02-21T05:55:50;0.40;;;0.40;;
4821;SDS011;2425;47.794;13.068;2024-02-21T05:58:17;0.30;;;0.30;;
4821;SDS011;2425;47.794;13.068;2024-02-21T06:00:44;0.40;;;0.40;;
4821;SDS011;2425;47.794;13.068;2024-02-21T06:03:11;0.43;;;0.43;;
4821;SDS011;2425;47.794;13.068;2024-02-21T06:05:37;0.37;;;0.37;;
4821;SDS011;2425;47.794;13.068;2024-02-21T06:08:06;0.50;;;0.50;;
4821;SDS011;2425;47.794;13.068;2024-02-21T06:10:34;0.50;;;0.50;;
4821;SDS011;2425;47.794;13.068;2024-02-21T06:13:00;0.33;;;0.33;;
4821;SDS011;2425;47.794;13.068;2024-02-21T06:15:27;0.40;;;0.40;;
4821;SDS011;2425;47.794;13.068;2024-02-21T06:17:54;0.47;;;0.47;;
4821;SDS011;2425;47.794;13.068;2024-02-21T06:20:20;0.50;;;0.47;;
4821;SDS011;2425;47.794;13.068;2024-02-21T06:22:47;0.37;;;0.37;;
4821;SDS011;2425;47.794;13.068;2024-02-21T06:25:15;0.30;;;0.30;;
4821;SDS011;2425;47.794;13.068;2024-02-21T06:27:43;0.50;;;0.50;;
4821;SDS011;2425;47.794;13.068;2024-02-21T06:30:10;1.50;;;0.30;;
4821;SDS011;2425;47.794;13.068;2024-02-21T06:32:37;1.47;;;1.07;;
4821;SDS011;2425;47.794;13.068;2024-02-21T06:35:04;0.60;;;0.37;;
4821;SDS011;2425;47.794;13.068;2024-02-21T06:37:31;0.50;;;0.40;;
4821;SDS011;2425;47.794;13.068;2024-02-21T06:39:58;0.40;;;0.40;;
4821;SDS011;2425;47.794;13.068;2024-02-21T06:42:27;0.53;;;0.50;;
4821;SDS011;2425;47.794;13.068;2024-02-21T06:44:54;0.50;;;0.50;;
4821;SDS011;2425;47.794;13.068;2024-02-21T06:47:21;0.93;;;0.50;;
4821;SDS011;2425;47.794;13.068;2024-02-21T06:49:48;0.70;;;0.70;;
4821;SDS011;2425;47.794;13.068;2024-02-21T06:52:16;0.67;;;0.60;;
4821;SDS011;2425;47.794;13.068;2024-02-21T06:54:45;0.50;;;0.43;;
4821;SDS011;2425;47.794;13.068;2024-02-21T06:57:12;2.63;;;0.50;;
4821;SDS011;2425;47.794;13.068;2024-02-21T06:59:40;1.50;;;0.77;;
4821;SDS011;2425;47.794;13.068;2024-02-21T07:02:07;0.87;;;0.50;;
4821;SDS011;2425;47.794;13.068;2024-02-21T07:04:34;0.70;;;0.50;;
4821;SDS011;2425;47.794;13.068;2024-02-21T07:07:01;0.50;;;0.50;;
4821;SDS011;2425;47.794;13.068;2024-02-21T07:09:28;0.90;;;0.67;;
4821;SDS011;2425;47.794;13.068;2024-02-21T07:11:57;0.50;;;0.50;;
4821;SDS011;2425;47.794;13.068;2024-02-21T07:14:23;0.57;;;0.57;;
4821;SDS011;2425;47.794;13.068;2024-02-21T07:16:51;0.90;;;0.60;;
4821;SDS011;2425;47.794;13.068;2024-02-21T07:19:18;0.50;;;0.50;;
4821;SDS011;2425;47.794;13.068;2024-02-21T07:21:45;2.10;;;0.50;;
4821;SDS011;2425;47.794;13.068;2024-02-21T07:24:13;0.70;;;0.70;;
4821;SDS011;2425;47.794;13.068;2024-02-21T07:26:40;0.63;;;0.47;;
4821;SDS011;2425;47.794;13.068;2024-02-21T07:29:08;1.60;;;0.60;;
4821;SDS011;2425;47.794;13.068;2024-02-21T07:31:38;0.50;;;0.50;;
4821;SDS011;2425;47.794;13.068;2024-02-21T07:34:07;0.77;;;0.70;;
4821;SDS011;2425;47.794;13.068;2024-02-21T07:36:34;0.40;;;0.40;;
4821;SDS011;2425;47.794;13.068;2024-02-21T07:39:02;0.87;;;0.60;;
4821;SDS011;2425;47.794;13.068;2024-02-21T07:41:29;0.40;;;0.40;;
4821;SDS011;2425;47.794;13.068;2024-02-21T07:43:56;0.60;;;0.50;;
4821;SDS011;2425;47.794;13.068;2024-02-21T07:46:23;0.50;;;0.50;;
4821;SDS011;2425;47.794;13.068;2024-02-21T07:48:50;0.93;;;0.67;;
4821;SDS011;2425;47.794;13.068;2024-02-21T07:51:18;0.60;;;0.60;;
4821;SDS011;2425;47.794;13.068;2024-02-21T07:53:45;0.83;;;0.60;;
4821;SDS011;2425;47.794;13.068;2024-02-21T07:56:12;1.47;;;0.80;;
4821;SDS011;2425;47.794;13.068;2024-02-21T07:58:39;1.10;;;0.70;;
4821;SDS011;2425;47.794;13.068;2024-02-21T08:01:06;0.70;;;0.67;;
4821;SDS011;2425;47.794;13.068;2024-02-21T08:03:33;2.10;;;1.13;;
4821;SDS011;2425;47.794;13.068;2024-02-21T08:06:00;1.20;;;1.00;;
4821;SDS011;2425;47.794;13.068;2024-02-21T08:08:28;0.80;;;0.80;;
4821;SDS011;2425;47.794;13.068;2024-02-21T08:10:55;1.80;;;1.00;;
4821;SDS011;2425;47.794;13.068;2024-02-21T08:13:22;1.57;;;0.90;;
4821;SDS011;2425;47.794;13.068;2024-02-21T08:15:48;1.27;;;0.60;;
4821;SDS011;2425;47.794;13.068;2024-02-21T08:18:15;2.53;;;0.80;;
4821;SDS011;2425;47.794;13.068;2024-02-21T08:20:42;1.77;;;0.97;;
4821;SDS011;2425;47.794;13.068;2024-02-21T08:23:09;2.30;;;0.83;;
4821;SDS011;2425;47.794;13.068;2024-02-21T08:25:37;2.03;;;0.93;;
4821;SDS011;2425;47.794;13.068;2024-02-21T08:28:04;1.60;;;0.80;;
4821;SDS011;2425;47.794;13.068;2024-02-21T08:30:31;1.73;;;1.07;;
4821;SDS011;2425;47.794;13.068;2024-02-21T08:32:58;1.57;;;0.90;;
4821;SDS011;2425;47.794;13.068;2024-02-21T08:35:25;0.83;;;0.73;;
4821;SDS011;2425;47.794;13.068;2024-02-21T08:37:52;1.17;;;1.00;;
4821;SDS011;2425;47.794;13.068;2024-02-21T08:40:18;1.90;;;1.03;;
4821;SDS011;2425;47.794;13.068;2024-02-21T08:42:47;0.80;;;0.80;;
4821;SDS011;2425;47.794;13.068;2024-02-21T08:45:15;0.83;;;0.80;;
4821;SDS011;2425;47.794;13.068;2024-02-21T08:47:42;1.10;;;1.10;;
4821;SDS011;2425;47.794;13.068;2024-02-21T08:50:09;0.73;;;0.70;;
4821;SDS011;2425;47.794;13.068;2024-02-21T08:52:36;0.70;;;0.70;;
4821;SDS011;2425;47.794;13.068;2024-02-21T08:55:03;3.03;;;0.80;;
4821;SDS011;2425;47.794;13.068;2024-02-21T08:57:30;5.50;;;1.30;;
4821;SDS011;2425;47.794;13.068;2024-02-21T09:00:03;2.30;;;1.20;;
4821;SDS011;2425;47.794;13.068;2024-02-21T09:02:34;1.37;;;1.17;;
4821;SDS011;2425;47.794;13.068;2024-02-21T09:05:02;0.80;;;0.80;;
4821;SDS011;2425;47.794;13.068;2024-02-21T09:07:30;2.10;;;0.97;;
4821;SDS011;2425;47.794;13.068;2024-02-21T09:09:57;0.83;;;0.83;;
4821;SDS011;2425;47.794;13.068;2024-02-21T09:12:23;1.20;;;1.03;;
4821;SDS011;2425;47.794;13.068;2024-02-21T09:14:50;1.87;;;1.10;;
4821;SDS011;2425;47.794;13.068;2024-02-21T09:17:18;1.60;;;1.50;;
4821;SDS011;2425;47.794;13.068;2024-02-21T09:19:45;3.23;;;1.70;;
4821;SDS011;2425;47.794;13.068;2024-02-21T09:22:12;4.20;;;1.70;;
4821;SDS011;2425;47.794;13.068;2024-02-21T09:24:39;7.63;;;1.80;;
4821;SDS011;2425;47.794;13.068;2024-02-21T09:27:06;2.63;;;1.40;;
4821;SDS011;2425;47.794;13.068;2024-02-21T09:29:32;4.00;;;1.30;;
4821;SDS011;2425;47.794;13.068;2024-02-21T09:31:59;2.23;;;2.03;;
4821;SDS011;2425;47.794;13.068;2024-02-21T09:34:27;3.30;;;2.00;;
4821;SDS011;2425;47.794;13.068;2024-02-21T09:36:54;1.63;;;1.50;;
4821;SDS011;2425;47.794;13.068;2024-02-21T09:39:21;3.70;;;1.53;;
4821;SDS011;2425;47.794;13.068;2024-02-21T09:41:50;1.83;;;1.73;;
4821;SDS011;2425;47.794;13.068;2024-02-21T09:44:20;2.30;;;1.60;;
4821;SDS011;2425;47.794;13.068;2024-02-21T09:46:50;4.77;;;2.20;;
4821;SDS011;2425;47.794;13.068;2024-02-21T09:49:21;1.77;;;1.67;;
4821;SDS011;2425;47.794;13.068;2024-02-21T09:51:56;2.20;;;1.27;;
4821;SDS011;2425;47.794;13.068;2024-02-21T09:54:24;3.00;;;2.00;;
4821;SDS011;2425;47.794;13.068;2024-02-21T09:56:51;5.33;;;1.90;;
4821;SDS011;2425;47.794;13.068;2024-02-21T09:59:17;3.20;;;1.27;;
4821;SDS011;2425;47.794;13.068;2024-02-21T10:01:44;3.17;;;1.60;;
4821;SDS011;2425;47.794;13.068;2024-02-21T10:04:13;2.60;;;1.50;;
4821;SDS011;2425;47.794;13.068;2024-02-21T10:06:41;5.47;;;1.50;;
4821;SDS011;2425;47.794;13.068;2024-02-21T10:09:08;3.97;;;1.73;;
4821;SDS011;2425;47.794;13.068;2024-02-21T10:11:35;3.90;;;1.80;;
4821;SDS011;2425;47.794;13.068;2024-02-21T10:14:02;3.23;;;1.90;;
4821;SDS011;2425;47.794;13.068;2024-02-21T10:16:30;5.13;;;1.57;;
4821;SDS011;2425;47.794;13.068;2024-02-21T10:18:57;1.47;;;1.37;;
4821;SDS011;2425;47.794;13.068;2024-02-21T10:21:24;2.13;;;1.77;;
4821;SDS011;2425;47.794;13.068;2024-02-21T10:23:52;1.97;;;1.80;;
4821;SDS011;2425;47.794;13.068;2024-02-21T10:26:19;2.40;;;1.90;;
4821;SDS011;2425;47.794;13.068;2024-02-21T10:28:46;1.90;;;1.80;;
4821;SDS011;2425;47.794;13.068;2024-02-21T10:31:22;2.83;;;1.80;;
4821;SDS011;2425;47.794;13.068;2024-02-21T10:33:56;8.33;;;2.20;;
4821;SDS011;2425;47.794;13.068;2024-02-21T10:36:23;2.03;;;1.93;;
4821;SDS011;2425;47.794;13.068;2024-02-21T10:38:52;2.93;;;2.00;;
4821;SDS011;2425;47.794;13.068;2024-02-21T10:41:19;2.70;;;2.50;;
4821;SDS011;2425;47.794;13.068;2024-02-21T10:43:49;2.30;;;2.10;;
4821;SDS011;2425;47.794;13.068;2024-02-21T10:46:18;5.30;;;2.13;;
4821;SDS011;2425;47.794;13.068;2024-02-21T10:48:47;3.20;;;2.47;;
4821;SDS011;2425;47.794;13.068;2024-02-21T10:51:16;2.07;;;1.90;;
4821;SDS011;2425;47.794;13.068;2024-02-21T10:53:44;2.10;;;2.00;;
4821;SDS011;2425;47.794;13.068;2024-02-21T10:56:19;2.90;;;2.33;;
4821;SDS011;2425;47.794;13.068;2024-02-21T10:58:49;2.40;;;2.30;;
4821;SDS011;2425;47.794;13.068;2024-02-21T11:01:16;4.80;;;2.60;;
4821;SDS011;2425;47.794;13.068;2024-02-21T11:03:44;2.43;;;2.23;;
4821;SDS011;2425;47.794;13.068;2024-02-21T11:06:12;4.70;;;2.10;;
4821;SDS011;2425;47.794;13.068;2024-02-21T11:08:39;3.07;;;2.00;;
4821;SDS011;2425;47.794;13.068;2024-02-21T11:11:06;3.27;;;2.50;;
4821;SDS011;2425;47.794;13.068;2024-02-21T11:13:36;4.97;;;2.30;;
4821;SDS011;2425;47.794;13.068;2024-02-21T11:16:07;2.67;;;2.40;;
4821;SDS011;2425;47.794;13.068;2024-02-21T11:18:35;2.43;;;2.33;;
4821;SDS011;2425;47.794;13.068;2024-02-21T11:21:02;2.23;;;2.13;;
4821;SDS011;2425;47.794;13.068;2024-02-21T11:23:29;10.00;;;2.63;;
4821;SDS011;2425;47.794;13.068;2024-02-21T11:26:03;3.27;;;2.97;;
4821;SDS011;2425;47.794;13.068;2024-02-21T11:28:31;2.70;;;2.50;;
4821;SDS011;2425;47.794;13.068;2024-02-21T11:31:07;2.83;;;2.63;;
4821;SDS011;2425;47.794;13.068;2024-02-21T11:33:34;3.10;;;2.63;;
4821;SDS011;2425;47.794;13.068;2024-02-21T11:36:01;2.47;;;2.27;;
4821;SDS011;2425;47.794;13.068;2024-02-21T11:38:29;2.37;;;2.17;;
4821;SDS011;2425;47.794;13.068;2024-02-21T11:40:56;2.57;;;2.37;;
4821;SDS011;2425;47.794;13.068;2024-02-21T11:43:23;3.93;;;2.50;;
4821;SDS011;2425;47.794;13.068;2024-02-21T11:45:50;2.20;;;2.10;;
4821;SDS011;2425;47.794;13.068;2024-02-21T11:48:18;2.40;;;2.30;;
4821;SDS011;2425;47.794;13.068;2024-02-21T11:50:52;3.70;;;2.10;;
4821;SDS011;2425;47.794;13.068;2024-02-21T11:53:19;2.13;;;2.03;;
4821;SDS011;2425;47.794;13.068;2024-02-21T11:55:46;2.40;;;2.20;;
4821;SDS011;2425;47.794;13.068;2024-02-21T11:58:14;2.53;;;2.43;;
4821;SDS011;2425;47.794;13.068;2024-02-21T12:00:41;2.30;;;2.20;;
4821;SDS011;2425;47.794;13.068;2024-02-21T12:03:08;2.03;;;1.93;;
4821;SDS011;2425;47.794;13.068;2024-02-21T12:05:36;2.40;;;2.20;;
4821;SDS011;2425;47.794;13.068;2024-02-21T12:08:03;2.20;;;2.10;;
4821;SDS011;2425;47.794;13.068;2024-02-21T12:10:30;2.67;;;2.07;;
4821;SDS011;2425;47.794;13.068;2024-02-21T12:13:05;1.73;;;1.73;;
4821;SDS011;2425;47.794;13.068;2024-02-21T12:15:32;2.17;;;2.07;;
4821;SDS011;2425;47.794;13.068;2024-02-21T12:17:59;3.23;;;2.50;;
4821;SDS011;2425;47.794;13.068;2024-02-21T12:20:26;2.27;;;2.07;;
4821;SDS011;2425;47.794;13.068;2024-02-21T12:22:54;2.20;;;2.10;;
4821;SDS011;2425;47.794;13.068;2024-02-21T12:25:21;2.20;;;2.10;;
4821;SDS011;2425;47.794;13.068;2024-02-21T12:27:51;2.37;;;2.27;;
4821;SDS011;2425;47.794;13.068;2024-02-21T12:30:18;2.40;;;2.20;;
4821;SDS011;2425;47.794;13.068;2024-02-21T12:32:45;2.30;;;2.20;;
4821;SDS011;2425;47.794;13.068;2024-02-21T12:35:13;2.20;;;2.10;;
4821;SDS011;2425;47.794;13.068;2024-02-21T12:37:40;2.20;;;2.10;;
4821;SDS011;2425;47.794;13.068;2024-02-21T12:40:09;2.00;;;1.90;;
4821;SDS011;2425;47.794;13.068;2024-02-21T12:42:38;2.43;;;2.23;;
4821;SDS011;2425;47.794;13.068;2024-02-21T12:45:05;2.50;;;2.30;;
4821;SDS011;2425;47.794;13.068;2024-02-21T12:47:32;1.60;;;1.60;;
4821;SDS011;2425;47.794;13.068;2024-02-21T12:49:59;2.10;;;2.00;;
4821;SDS011;2425;47.794;13.068;2024-02-21T12:52:28;2.30;;;2.10;;
4821;SDS011;2425;47.794;13.068;2024-02-21T12:54:55;2.30;;;2.20;;
4821;SDS011;2425;47.794;13.068;2024-02-21T12:57:25;1.93;;;1.80;;
4821;SDS011;2425;47.794;13.068;2024-02-21T12:59:52;6.83;;;2.50;;
4821;SDS011;2425;47.794;13.068;2024-02-21T13:02:18;2.10;;;2.00;;
4821;SDS011;2425;47.794;13.068;2024-02-21T13:04:46;1.93;;;1.83;;
4821;SDS011;2425;47.794;13.068;2024-02-21T13:07:13;2.40;;;2.20;;
4821;SDS011;2425;47.794;13.068;2024-02-21T13:09:39;1.90;;;1.80;;
4821;SDS011;2425;47.794;13.068;2024-02-21T13:12:06;1.90;;;1.80;;
4821;SDS011;2425;47.794;13.068;2024-02-21T13:14:35;4.50;;;2.13;;
4821;SDS011;2425;47.794;13.068;2024-02-21T13:17:04;1.70;;;1.70;;
4821;SDS011;2425;47.794;13.068;2024-02-21T13:19:31;1.80;;;1.70;;
4821;SDS011;2425;47.794;13.068;2024-02-21T13:21:57;1.60;;;1.50;;
4821;SDS011;2425;47.794;13.068;2024-02-21T13:24:24;1.90;;;1.80;;
4821;SDS011;2425;47.794;13.068;2024-02-21T13:26:51;1.80;;;1.70;;
4821;SDS011;2425;47.794;13.068;2024-02-21T13:29:17;1.40;;;1.40;;
4821;SDS011;2425;47.794;13.068;2024-02-21T13:31:47;1.70;;;1.60;;
4821;SDS011;2425;47.794;13.068;2024-02-21T13:34:15;1.87;;;1.77;;
4821;SDS011;2425;47.794;13.068;2024-02-21T13:36:42;1.90;;;1.80;;
4821;SDS011;2425;47.794;13.068;2024-02-21T13:39:09;1.73;;;1.73;;
4821;SDS011;2425;47.794;13.068;2024-02-21T13:41:38;2.33;;;1.97;;
4821;SDS011;2425;47.794;13.068;2024-02-21T13:44:04;2.10;;;2.00;;
4821;SDS011;2425;47.794;13.068;2024-02-21T13:46:31;1.57;;;1.57;;
4821;SDS011;2425;47.794;13.068;2024-02-21T13:49:03;1.37;;;1.37;;
4821;SDS011;2425;47.794;13.068;2024-02-21T13:51:32;1.57;;;1.47;;
4821;SDS011;2425;47.794;13.068;2024-02-21T13:54:01;1.20;;;1.20;;
4821;SDS011;2425;47.794;13.068;2024-02-21T13:56:28;1.70;;;1.60;;
4821;SDS011;2425;47.794;13.068;2024-02-21T13:58:54;1.20;;;1.20;;
4821;SDS011;2425;47.794;13.068;2024-02-21T14:01:21;1.40;;;1.30;;
4821;SDS011;2425;47.794;13.068;2024-02-21T14:03:48;1.60;;;1.10;;
4821;SDS011;2425;47.794;13.068;2024-02-21T14:06:16;1.30;;;1.30;;
4821;SDS011;2425;47.794;13.068;2024-02-21T14:08:43;0.90;;;0.90;;
4821;SDS011;2425;47.794;13.068;2024-02-21T14:11:10;0.93;;;0.93;;
4821;SDS011;2425;47.794;13.068;2024-02-21T14:13:37;0.90;;;0.90;;
4821;SDS011;2425;47.794;13.068;2024-02-21T14:16:08;0.90;;;0.90;;
4821;SDS011;2425;47.794;13.068;2024-02-21T14:18:36;0.80;;;0.80;;
4821;SDS011;2425;47.794;13.068;2024-02-21T14:21:04;1.03;;;0.97;;
4821;SDS011;2425;47.794;13.068;2024-02-21T14:23:32;1.10;;;1.10;;
4821;SDS011;2425;47.794;13.068;2024-02-21T14:25:59;0.70;;;0.70;;
4821;SDS011;2425;47.794;13.068;2024-02-21T14:28:26;0.93;;;0.93;;
4821;SDS011;2425;47.794;13.068;2024-02-21T14:30:53;0.83;;;0.83;;
4821;SDS011;2425;47.794;13.068;2024-02-21T14:33:22;1.13;;;1.03;;
4821;SDS011;2425;47.794;13.068;2024-02-21T14:35:49;0.77;;;0.77;;
4821;SDS011;2425;47.794;13.068;2024-02-21T14:38:16;0.70;;;0.70;;
4821;SDS011;2425;47.794;13.068;2024-02-21T14:40:44;0.93;;;0.93;;
4821;SDS011;2425;47.794;13.068;2024-02-21T14:43:11;1.30;;;1.20;;
4821;SDS011;2425;47.794;13.068;2024-02-21T14:45:37;0.90;;;0.90;;
4821;SDS011;2425;47.794;13.068;2024-02-21T14:48:05;1.13;;;0.80;;
4821;SDS011;2425;47.794;13.068;2024-02-21T14:50:32;1.10;;;0.80;;
4821;SDS011;2425;47.794;13.068;2024-02-21T14:52:59;0.80;;;0.80;;
4821;SDS011;2425;47.794;13.068;2024-02-21T14:55:26;1.67;;;0.80;;
4821;SDS011;2425;47.794;13.068;2024-02-21T14:57:54;0.87;;;0.70;;
4821;SDS011;2425;47.794;13.068;2024-02-21T15:00:20;0.63;;;0.63;;